Impacts TAF Board INFO
FOR SITUATIONAL AWARENESS. NOT TO BE USED FOR FLIGHT PLANNING PURPOSES.
IDs:

KMIA - Miami Intl, FL, US

Issued at 1732 UTC 16 Aug 2018
Updated at 2019 UTC 16 Aug 2018
Potential Impact None Slight Moderate High
Time<<17/09Z 17/10Z 17/11Z 17/12Z 17/13Z 17/14Z 17/15Z 17/16Z 17/17Z 17/18Z 17/19Z 17/20Z 17/21Z>>
Type PRVL PRVL PRVL PRVL PRVL PRVL PRVL PRVL PRVL PRVL PRVL PRVL PRVL
VIS >6 >6 >6 >6 >6 >6 >6 >6 >6 >6 >6 >6 >6
CIG -- -- -- -- -- -- -- -- -- -- -- -- --
Cover SKC SKC SKC SKC SKC SCT SCT SCT SCT SCT SCT SCT SCT
FltCat VFR VFR VFR VFR VFR VFR VFR VFR VFR VFR VFR VFR VFR
WX -- -- -- -- -- -- -- -- -- -- -- -- --
WDir 100 100 100 100 100 100 100 100 100 100 100 100 100
WSpd 6 6 6 6 6 12 12 12 12 12 12 12 12
WGst -- -- -- -- -- -- -- -- -- -- -- -- --

Raw TAF
KMIA 161732Z 1618/1724 11012KT P6SM SCT035 SCT250
  FM170100 10006KT P6SM SKC
  FM171400 10012KT P6SM SCT035


METAR Board
Radar Display
Forecast Discussion

FOR SITUATIONAL AWARENESS. NOT TO BE USED FOR FLIGHT PLANNING PURPOSES.